createdAt,value
2023-12-30T17:42:53.458Z,201.67
2023-12-30T17:43:27.176Z,205.33
2023-12-30T17:44:04.738Z,207.33
2023-12-30T17:44:38.982Z,216.00
2023-12-30T17:45:16.099Z,210.67
2023-12-30T17:45:49.783Z,208.67
2023-12-30T17:46:23.420Z,209.33
2023-12-30T17:46:57.367Z,206.67
2023-12-30T17:47:33.866Z,205.33
2023-12-30T17:48:07.908Z,205.00
2023-12-30T17:48:41.660Z,209.67
2023-12-30T17:49:16.340Z,210.00
2023-12-30T17:49:50.646Z,205.00
2023-12-30T17:50:26.980Z,202.67
2023-12-30T17:51:00.596Z,191.33
2023-12-30T17:51:33.938Z,186.33
2023-12-30T17:52:07.586Z,186.67
2023-12-30T17:52:43.123Z,186.00
2023-12-30T17:53:16.815Z,188.00
2023-12-30T17:53:52.436Z,188.00
2023-12-30T17:54:30.387Z,182.33
2023-12-30T17:55:04.696Z,181.67
2023-12-30T17:55:38.983Z,179.00
2023-12-30T17:56:12.587Z,171.67
2023-12-30T17:56:46.418Z,173.00
2023-12-30T17:57:20.006Z,169.00
2023-12-30T17:57:53.352Z,170.33
2023-12-30T17:58:27.023Z,173.33
2023-12-30T17:59:00.514Z,174.00
2023-12-30T17:59:33.859Z,175.00
2023-12-30T18:00:08.152Z,172.00
2023-12-30T18:00:48.733Z,173.67
2023-12-30T18:01:22.632Z,178.67
2023-12-30T18:01:56.385Z,207.67
2023-12-30T18:02:29.786Z,208.00
2023-12-30T18:03:05.739Z,201.67
2023-12-30T18:03:39.568Z,201.33
2023-12-30T18:04:13.322Z,200.67
2023-12-30T18:04:50.376Z,199.33
2023-12-30T18:05:24.080Z,194.00
2023-12-30T18:05:57.652Z,194.33
2023-12-30T18:06:34.559Z,194.00
2023-12-30T18:07:07.919Z,190.67
2023-12-30T18:07:41.712Z,188.00
2023-12-30T18:08:21.326Z,188.00
2023-12-30T18:08:55.009Z,189.00
2023-12-30T18:09:29.897Z,187.67
2023-12-30T18:10:04.300Z,176.33
2023-12-30T18:10:39.479Z,167.67
2023-12-30T18:11:14.478Z,168.00
2023-12-30T18:11:47.777Z,161.67
2023-12-30T18:12:21.245Z,153.67
2023-12-30T18:12:54.546Z,151.00
2023-12-30T18:13:28.926Z,155.67
2023-12-30T18:14:02.853Z,162.33
2023-12-30T18:14:41.725Z,163.67
2023-12-30T18:15:16.160Z,166.00
2023-12-30T18:15:49.545Z,170.67
2023-12-30T18:16:24.774Z,173.00
2023-12-30T18:17:00.203Z,172.00
2023-12-30T18:17:33.569Z,173.00
2023-12-30T18:18:09.802Z,173.33
2023-12-30T18:18:44.661Z,169.33
2023-12-30T18:19:23.500Z,164.33
2023-12-30T18:19:57.268Z,156.33
2023-12-30T18:20:31.130Z,150.67
2023-12-30T18:21:05.993Z,149.00
2023-12-30T18:21:39.564Z,155.33
2023-12-30T18:22:13.336Z,152.67
2023-12-30T18:22:48.206Z,154.00
2023-12-30T18:23:21.908Z,151.67
2023-12-30T18:23:55.505Z,149.33
2023-12-30T18:24:31.708Z,144.00
2023-12-30T18:25:05.713Z,140.33
2023-12-30T18:25:39.241Z,139.67
2023-12-30T18:26:13.708Z,134.00
2023-12-30T18:26:51.559Z,141.00
2023-12-30T18:27:27.385Z,137.33
2023-12-30T18:28:00.878Z,139.33
2023-12-30T18:28:34.578Z,139.00
2023-12-30T18:29:10.564Z,141.67
2023-12-30T18:29:47.085Z,143.00
2023-12-30T18:30:21.604Z,140.67
2023-12-30T18:30:57.888Z,141.33
2023-12-30T18:31:32.949Z,141.67
2023-12-30T18:32:10.010Z,143.00
2023-12-30T18:32:47.311Z,141.33
2023-12-30T18:33:20.804Z,141.00
2023-12-30T18:33:54.511Z,139.67
2023-12-30T18:34:28.462Z,136.67
2023-12-30T18:35:04.459Z,139.33
2023-12-30T18:35:38.860Z,143.67
2023-12-30T18:36:13.029Z,146.33
2023-12-30T18:36:47.299Z,152.00
2023-12-30T18:37:21.297Z,151.00
2023-12-30T18:37:55.834Z,138.33
2023-12-30T18:38:30.498Z,135.00
2023-12-30T18:39:07.503Z,129.33
2023-12-30T18:39:42.001Z,128.00
2023-12-30T18:40:18.088Z,125.33
2023-12-30T18:40:51.533Z,129.67
2023-12-30T18:41:24.973Z,130.67
2023-12-30T18:41:59.029Z,131.67
2023-12-30T18:42:32.501Z,131.67
2023-12-30T18:43:08.955Z,129.33
2023-12-30T18:43:43.405Z,130.67
2023-12-30T18:44:19.443Z,125.00
2023-12-30T18:44:53.085Z,127.67
2023-12-30T18:45:28.507Z,129.33
2023-12-30T18:46:02.490Z,130.00
2023-12-30T18:46:39.248Z,130.33
2023-12-30T18:47:14.020Z,131.33
2023-12-30T18:47:47.564Z,133.00
2023-12-30T18:48:21.085Z,132.00
2023-12-30T18:48:55.915Z,131.67
2023-12-30T18:49:29.401Z,132.00
2023-12-30T18:50:03.098Z,131.67
2023-12-30T18:50:36.784Z,131.33
2023-12-30T18:51:10.367Z,129.33
2023-12-30T18:51:44.460Z,128.67
2023-12-30T18:52:19.057Z,127.67
2023-12-30T18:52:53.285Z,128.00
2023-12-30T18:53:26.702Z,128.00
2023-12-30T18:53:59.993Z,128.33
2023-12-30T18:54:33.229Z,128.67
2023-12-30T18:55:09.454Z,126.00
2023-12-30T18:55:47.417Z,125.67
2023-12-30T18:56:20.811Z,124.00
2023-12-30T18:56:58.474Z,124.00
2023-12-30T18:57:32.089Z,125.00
2023-12-30T18:58:07.955Z,125.00
2023-12-30T18:58:42.944Z,124.00
2023-12-30T18:59:19.655Z,123.67
2023-12-30T18:59:53.015Z,125.00
2023-12-30T19:00:28.127Z,124.00
2023-12-30T19:01:02.970Z,124.00
2023-12-30T19:01:46.110Z,123.33
2023-12-30T19:02:19.662Z,119.33
2023-12-30T19:02:53.887Z,119.00
2023-12-30T19:03:33.017Z,119.67
2023-12-30T19:04:08.190Z,120.33
2023-12-30T19:04:45.578Z,120.00
2023-12-30T19:05:19.342Z,120.33
2023-12-30T19:05:53.186Z,119.67
2023-12-30T19:06:27.237Z,112.00
2023-12-30T19:07:03.849Z,110.33
2023-12-30T19:07:37.487Z,112.33
2023-12-30T19:08:12.051Z,109.33
2023-12-30T19:08:46.691Z,110.67
2023-12-30T19:09:23.135Z,108.67
2023-12-30T19:09:56.667Z,105.67
2023-12-30T19:10:30.338Z,105.00
2023-12-30T19:11:05.053Z,104.67
2023-12-30T19:11:41.798Z,107.00
2023-12-30T19:12:15.827Z,105.33
2023-12-30T19:12:51.229Z,104.67
2023-12-30T19:13:30.498Z,102.67
2023-12-30T19:14:04.207Z,102.33
2023-12-30T19:14:37.821Z,99.33
2023-12-30T19:15:11.200Z,95.67
2023-12-30T19:15:46.168Z,94.67
2023-12-30T19:16:20.184Z,95.33
2023-12-30T19:16:53.929Z,95.00
2023-12-30T19:17:30.128Z,97.00
2023-12-30T19:18:06.127Z,94.33
2023-12-30T19:18:39.941Z,95.33
2023-12-30T19:19:19.036Z,96.00
2023-12-30T19:19:53.195Z,96.00
2023-12-30T19:20:26.711Z,96.00
2023-12-30T19:21:00.477Z,102.00
2023-12-30T19:21:35.255Z,117.00
2023-12-30T19:22:08.805Z,115.67
2023-12-30T19:22:42.463Z,114.00
2023-12-30T19:23:16.552Z,109.33
2023-12-30T19:23:52.869Z,106.33
2023-12-30T19:24:26.455Z,101.33
2023-12-30T19:24:59.959Z,93.00
2023-12-30T19:25:36.244Z,83.00
2023-12-30T19:26:09.802Z,82.67
2023-12-30T19:26:45.011Z,86.33
2023-12-30T19:27:18.498Z,86.00
2023-12-30T19:27:55.116Z,82.33
2023-12-30T19:28:28.504Z,78.67
2023-12-30T19:29:02.490Z,78.67
2023-12-30T19:29:36.456Z,80.67
2023-12-30T19:30:15.574Z,82.33
2023-12-30T19:30:49.671Z,82.33
2023-12-30T19:31:23.499Z,84.33
2023-12-30T19:31:57.291Z,88.00
2023-12-30T19:32:30.718Z,89.00
2023-12-30T19:33:06.345Z,90.00
2023-12-30T19:33:43.380Z,90.00
2023-12-30T19:34:17.312Z,90.00
2023-12-30T19:34:51.409Z,91.00
2023-12-30T19:35:30.659Z,93.00
2023-12-30T19:36:04.971Z,102.67
2023-12-30T19:36:39.533Z,102.00
2023-12-30T19:37:12.993Z,102.00
2023-12-30T19:37:46.612Z,101.67
2023-12-30T19:38:20.068Z,101.00
2023-12-30T19:38:56.221Z,101.00
2023-12-30T19:39:29.759Z,101.00
2023-12-30T19:40:04.980Z,102.67
2023-12-30T19:40:46.789Z,108.33
2023-12-30T19:41:21.734Z,107.33
2023-12-30T19:41:55.471Z,111.67
2023-12-30T19:42:29.244Z,113.33
2023-12-30T19:43:04.984Z,115.33
2023-12-30T19:43:38.935Z,113.00
2023-12-30T19:44:12.640Z,111.33
2023-12-30T19:44:46.685Z,109.33
2023-12-30T19:45:23.346Z,107.67
2023-12-30T19:45:57.008Z,102.67
2023-12-30T19:46:32.990Z,98.00
2023-12-30T19:47:06.743Z,92.33
2023-12-30T19:47:40.471Z,87.67
2023-12-30T19:48:17.625Z,83.33
2023-12-30T19:48:50.980Z,84.00
2023-12-30T19:49:24.924Z,85.67
2023-12-30T19:49:58.672Z,86.00
2023-12-30T19:50:32.143Z,87.00
2023-12-30T19:51:05.648Z,87.33
2023-12-30T19:51:39.073Z,88.00
2023-12-30T19:52:16.622Z,88.00
2023-12-30T19:52:51.118Z,88.67
2023-12-30T19:53:25.037Z,89.00
2023-12-30T19:53:58.426Z,90.00
2023-12-30T19:54:32.167Z,89.67
2023-12-30T19:55:07.054Z,89.00
2023-12-30T19:55:43.483Z,88.00
2023-12-30T19:56:16.963Z,86.00
2023-12-30T19:56:50.724Z,83.33
2023-12-30T19:57:24.048Z,83.67
2023-12-30T19:57:57.547Z,84.00
2023-12-30T19:58:32.354Z,85.00
2023-12-30T19:59:06.196Z,83.67
2023-12-30T19:59:40.833Z,83.67
2023-12-30T20:00:14.929Z,82.67
2023-12-30T20:00:48.805Z,81.67
2023-12-30T20:01:25.090Z,80.67
2023-12-30T20:01:58.836Z,80.67
2023-12-30T20:02:33.790Z,78.67
2023-12-30T20:03:09.641Z,79.67
2023-12-30T20:03:44.586Z,81.33
2023-12-30T20:04:18.266Z,84.33
2023-12-30T20:04:52.401Z,85.33
2023-12-30T20:05:25.999Z,85.67
2023-12-30T20:06:00.725Z,87.00
2023-12-30T20:06:34.657Z,88.00
2023-12-30T20:07:10.168Z,88.00
2023-12-30T20:07:44.763Z,88.00
2023-12-30T20:08:21.281Z,89.67
2023-12-30T20:08:58.015Z,91.33
2023-12-30T20:09:31.705Z,92.00
2023-12-30T20:10:06.080Z,92.00
2023-12-30T20:10:39.503Z,90.67
2023-12-30T20:11:13.074Z,89.67
2023-12-30T20:11:46.536Z,89.00
2023-12-30T20:12:20.102Z,89.33
2023-12-30T20:12:54.607Z,89.67
2023-12-30T20:13:28.271Z,89.67
2023-12-30T20:14:02.116Z,89.00
2023-12-30T20:14:38.142Z,89.00
2023-12-30T20:15:11.584Z,87.00
2023-12-30T20:15:45.119Z,85.67
2023-12-30T20:16:18.580Z,85.00
2023-12-30T20:16:52.142Z,85.00
2023-12-30T20:17:25.914Z,84.67
2023-12-30T20:17:59.756Z,84.67
2023-12-30T20:18:37.073Z,85.33
2023-12-30T20:19:11.968Z,85.33
2023-12-30T20:19:46.153Z,84.67
2023-12-30T20:20:19.582Z,84.00
2023-12-30T20:20:52.961Z,84.00
2023-12-30T20:21:26.949Z,84.33
2023-12-30T20:22:01.743Z,84.33
2023-12-30T20:22:35.424Z,84.67
2023-12-30T20:23:08.773Z,85.00
2023-12-30T20:23:49.864Z,84.33
2023-12-30T20:24:23.569Z,84.00
2023-12-30T20:24:56.993Z,87.00
2023-12-30T20:25:33.621Z,90.33
2023-12-30T20:26:10.604Z,88.00
2023-12-30T20:26:44.925Z,86.00
2023-12-30T20:27:18.264Z,86.67
2023-12-30T20:27:51.700Z,87.00
2023-12-30T20:28:25.504Z,87.67
2023-12-30T20:28:59.262Z,88.67
2023-12-30T20:29:35.258Z,90.33
2023-12-30T20:30:09.944Z,91.00
2023-12-30T20:30:46.688Z,90.00
2023-12-30T20:31:21.221Z,87.33
2023-12-30T20:31:57.198Z,87.00
2023-12-30T20:32:32.611Z,87.00
2023-12-30T20:33:06.426Z,87.33
2023-12-30T20:33:40.170Z,87.33
2023-12-30T20:34:13.909Z,86.67
2023-12-30T20:34:50.873Z,86.67
2023-12-30T20:35:24.589Z,88.67
2023-12-30T20:35:58.283Z,89.00
2023-12-30T20:36:33.044Z,88.33
2023-12-30T20:37:06.622Z,87.67
2023-12-30T20:37:40.050Z,85.67
2023-12-30T20:38:16.588Z,85.67
2023-12-30T20:38:51.289Z,85.00
2023-12-30T20:39:24.647Z,81.67
2023-12-30T20:40:00.047Z,79.33
2023-12-30T20:40:37.238Z,79.00
2023-12-30T20:41:11.549Z,78.33
2023-12-30T20:41:45.034Z,79.00
2023-12-30T20:42:19.028Z,79.33
2023-12-30T20:42:55.730Z,80.00
2023-12-30T20:43:29.386Z,80.33
2023-12-30T20:44:05.424Z,81.67
2023-12-30T20:44:39.695Z,81.33
2023-12-30T20:45:15.294Z,82.00
2023-12-30T20:45:48.957Z,80.33
2023-12-30T20:46:22.630Z,81.00
2023-12-30T20:46:55.989Z,80.67
2023-12-30T20:47:29.687Z,80.00
2023-12-30T20:48:03.532Z,79.33
2023-12-30T20:48:41.458Z,76.67
2023-12-30T20:49:15.125Z,75.67
2023-12-30T20:49:48.999Z,75.33
2023-12-30T20:50:23.208Z,74.00
2023-12-30T20:50:56.670Z,72.33
2023-12-30T20:51:30.388Z,72.00
2023-12-30T20:52:04.208Z,72.67
2023-12-30T20:52:39.036Z,71.67
2023-12-30T20:53:12.504Z,71.33
2023-12-30T20:53:49.187Z,69.67
2023-12-30T20:54:22.908Z,69.67
2023-12-30T20:54:56.244Z,69.67
2023-12-30T20:55:30.455Z,70.00
2023-12-30T20:56:03.944Z,69.33
2023-12-30T20:56:37.271Z,68.33
2023-12-30T20:57:13.514Z,67.67
2023-12-30T20:57:46.802Z,67.00
2023-12-30T20:58:20.209Z,67.00
2023-12-30T20:58:53.895Z,67.33
2023-12-30T20:59:27.497Z,68.00
2023-12-30T21:00:01.163Z,68.00
2023-12-30T21:00:34.901Z,67.67
2023-12-30T21:01:09.172Z,67.00
2023-12-30T21:01:44.513Z,68.00
2023-12-30T21:02:18.126Z,68.00
2023-12-30T21:02:51.953Z,69.00
2023-12-30T21:03:27.724Z,68.00
2023-12-30T21:04:01.513Z,67.67
2023-12-30T21:04:36.341Z,68.33
2023-12-30T21:05:12.909Z,76.33
2023-12-30T21:05:47.590Z,81.67
2023-12-30T21:06:25.064Z,109.00
2023-12-30T21:06:59.870Z,120.33
2023-12-30T21:07:33.508Z,122.67
2023-12-30T21:08:12.481Z,108.00
2023-12-30T21:08:47.970Z,99.67
2023-12-30T21:09:23.072Z,97.67
2023-12-30T21:09:56.404Z,91.00
2023-12-30T21:10:30.579Z,80.67
2023-12-30T21:11:07.279Z,80.00
2023-12-30T21:11:46.923Z,79.67
2023-12-30T21:12:20.747Z,77.00
2023-12-30T21:12:54.539Z,72.33
2023-12-30T21:13:28.214Z,70.00
2023-12-30T21:14:01.541Z,70.00
2023-12-30T21:14:35.016Z,70.67
2023-12-30T21:15:10.655Z,69.67
2023-12-30T21:15:44.720Z,65.67
2023-12-30T21:16:19.524Z,66.67
2023-12-30T21:16:56.209Z,67.00
2023-12-30T21:17:29.641Z,66.33
2023-12-30T21:18:07.833Z,65.00
2023-12-30T21:18:44.889Z,62.00
2023-12-30T21:19:18.818Z,62.00
2023-12-30T21:19:52.518Z,62.00
2023-12-30T21:20:26.065Z,60.67
2023-12-30T21:21:03.890Z,62.00
2023-12-30T21:21:44.193Z,62.00
2023-12-30T21:22:17.766Z,62.00
2023-12-30T21:22:56.573Z,61.00
2023-12-30T21:23:32.938Z,60.67
2023-12-30T21:24:14.829Z,60.00
2023-12-30T21:24:48.186Z,60.67
2023-12-30T21:25:27.380Z,59.33
2023-12-30T21:26:04.692Z,56.67
2023-12-30T21:26:38.723Z,57.00
2023-12-30T21:27:14.960Z,57.00
2023-12-30T21:27:53.961Z,56.33
2023-12-30T21:28:31.795Z,56.67
2023-12-30T21:29:10.563Z,54.67
2023-12-30T21:29:52.412Z,54.00
2023-12-30T21:30:30.052Z,53.67
2023-12-30T21:31:08.076Z,54.67
2023-12-30T21:31:45.424Z,55.33
2023-12-30T21:32:30.748Z,56.00
2023-12-30T21:33:05.306Z,57.00
2023-12-30T21:33:45.427Z,57.00
2023-12-30T21:34:19.385Z,57.00
2023-12-30T21:34:59.624Z,56.00
2023-12-30T21:35:33.704Z,56.00
2023-12-30T21:36:08.017Z,55.67
2023-12-30T21:36:46.037Z,54.67
2023-12-30T21:37:19.700Z,53.00
2023-12-30T21:37:55.976Z,53.00
2023-12-30T21:38:32.714Z,53.00
2023-12-30T21:39:07.712Z,54.00
2023-12-30T21:39:42.643Z,54.00
2023-12-30T21:40:18.251Z,54.00
2023-12-30T21:40:51.633Z,55.00
2023-12-30T21:41:25.313Z,55.00
2023-12-30T21:42:01.695Z,55.00
2023-12-30T21:42:37.554Z,54.00
2023-12-30T21:43:12.918Z,52.33
2023-12-30T21:43:52.344Z,51.00
2023-12-30T21:44:34.220Z,51.00
2023-12-30T21:45:13.940Z,50.00
2023-12-30T21:45:49.499Z,49.67
2023-12-30T21:46:24.885Z,48.33
2023-12-30T21:47:06.856Z,46.67
2023-12-30T21:47:40.461Z,45.67
2023-12-30T21:48:14.589Z,44.00
2023-12-30T21:48:51.041Z,41.00
2023-12-30T21:49:25.876Z,40.67
2023-12-30T21:50:05.670Z,41.00
2023-12-30T21:50:39.756Z,41.00
2023-12-30T21:51:14.698Z,41.67
2023-12-30T21:51:51.466Z,42.00
2023-12-30T21:52:27.605Z,42.00
2023-12-30T21:53:01.416Z,41.67
2023-12-30T21:53:37.896Z,42.00
2023-12-30T21:54:17.691Z,42.00
2023-12-30T21:54:51.140Z,42.00
2023-12-30T21:55:27.726Z,42.67
2023-12-30T21:56:01.188Z,46.00
2023-12-30T21:56:37.775Z,55.67
2023-12-30T21:57:14.073Z,55.33
2023-12-30T21:57:47.724Z,55.00
2023-12-30T21:58:21.528Z,55.33
2023-12-30T21:58:58.984Z,54.00
2023-12-30T21:59:35.348Z,54.00
2023-12-30T22:00:10.428Z,54.00
2023-12-30T22:00:45.971Z,52.67
2023-12-30T22:01:19.452Z,52.00
2023-12-30T22:01:52.905Z,52.00
2023-12-30T22:02:27.840Z,52.00
2023-12-30T22:03:01.721Z,51.00
2023-12-30T22:03:35.736Z,50.33
2023-12-30T22:04:09.386Z,50.00
2023-12-30T22:04:44.756Z,50.00
2023-12-30T22:05:30.660Z,49.67
2023-12-30T22:06:05.489Z,49.00
2023-12-30T22:06:39.452Z,49.00
2023-12-30T22:07:15.633Z,48.33
2023-12-30T22:07:49.394Z,47.33
2023-12-30T22:08:27.649Z,46.67
2023-12-30T22:09:01.256Z,45.67
2023-12-30T22:09:37.828Z,43.67
2023-12-30T22:10:23.603Z,41.67
2023-12-30T22:11:00.277Z,40.33
2023-12-30T22:11:36.207Z,40.00
2023-12-30T22:12:09.516Z,40.33
2023-12-30T22:12:44.334Z,41.67
2023-12-30T22:13:17.881Z,48.33
2023-12-30T22:13:51.273Z,52.33
2023-12-30T22:14:29.171Z,55.33
2023-12-30T22:15:05.536Z,58.33
2023-12-30T22:15:40.572Z,59.00
2023-12-30T22:16:14.024Z,58.00
2023-12-30T22:16:49.030Z,58.00
2023-12-30T22:17:25.532Z,58.00
2023-12-30T22:17:59.385Z,58.00
2023-12-30T22:18:33.037Z,59.00
2023-12-30T22:19:07.977Z,59.00
2023-12-30T22:19:42.669Z,59.00
2023-12-30T22:20:18.568Z,59.00
2023-12-30T22:20:53.956Z,63.67
2023-12-30T22:21:34.056Z,63.67
2023-12-30T22:22:11.600Z,65.00
2023-12-30T22:22:48.420Z,65.00
2023-12-30T22:23:22.105Z,63.33
2023-12-30T22:24:01.157Z,63.00
2023-12-30T22:24:37.437Z,62.33
2023-12-30T22:25:13.324Z,62.00
2023-12-30T22:25:50.166Z,62.33
2023-12-30T22:26:23.452Z,65.00
2023-12-30T22:27:00.051Z,63.67
2023-12-30T22:27:37.048Z,62.67
2023-12-30T22:28:11.411Z,62.00
2023-12-30T22:28:45.500Z,68.33
2023-12-30T22:29:26.347Z,73.67
2023-12-30T22:30:03.169Z,70.67
2023-12-30T22:30:36.965Z,70.00
2023-12-30T22:31:16.147Z,69.67
2023-12-30T22:31:49.670Z,67.67
2023-12-30T22:32:25.591Z,63.33
2023-12-30T22:33:02.110Z,61.67
2023-12-30T22:33:36.005Z,60.67
2023-12-30T22:34:10.830Z,57.67
2023-12-30T22:34:45.813Z,51.67
2023-12-30T22:35:19.742Z,48.00
2023-12-30T22:35:53.779Z,46.33
2023-12-30T22:36:32.104Z,47.33
2023-12-30T22:37:05.708Z,47.00
2023-12-30T22:37:42.152Z,47.33
2023-12-30T22:38:19.512Z,47.67
2023-12-30T22:38:53.039Z,48.00
2023-12-30T22:39:27.505Z,48.00
2023-12-30T22:40:02.530Z,48.00
2023-12-30T22:40:38.723Z,49.00
2023-12-30T22:41:15.457Z,49.00
2023-12-30T22:41:49.171Z,49.67
2023-12-30T22:42:22.593Z,50.00
2023-12-30T22:42:56.927Z,50.00
2023-12-30T22:43:32.651Z,51.00
2023-12-30T22:44:06.286Z,52.67
2023-12-30T22:44:42.187Z,54.00
2023-12-30T22:45:18.085Z,55.00
2023-12-30T22:45:54.232Z,56.00
2023-12-30T22:46:30.360Z,56.00
2023-12-30T22:47:06.929Z,57.00
2023-12-30T22:47:44.209Z,60.33
2023-12-30T22:48:20.171Z,66.00
2023-12-30T22:48:56.479Z,68.67
2023-12-30T22:49:37.597Z,67.00
2023-12-30T22:50:13.419Z,72.00
2023-12-30T22:50:46.952Z,71.00
2023-12-30T22:51:23.540Z,70.67
2023-12-30T22:52:00.097Z,70.00
2023-12-30T22:52:37.799Z,69.33
2023-12-30T22:53:11.756Z,69.00
2023-12-30T22:53:47.514Z,68.33
2023-12-30T22:54:28.368Z,66.33
2023-12-30T22:55:03.490Z,65.67
2023-12-30T22:55:36.962Z,64.67
2023-12-30T22:56:13.482Z,63.33
2023-12-30T22:56:46.988Z,62.00
2023-12-30T22:57:20.718Z,61.67
2023-12-30T22:57:54.328Z,61.00
2023-12-30T22:58:27.872Z,61.00
2023-12-30T22:59:01.620Z,60.67
2023-12-30T22:59:35.471Z,57.67
2023-12-30T23:00:11.897Z,55.33
2023-12-30T23:00:46.763Z,55.00
2023-12-30T23:01:23.251Z,55.00
2023-12-30T23:02:00.037Z,55.00
2023-12-30T23:02:39.624Z,55.33
2023-12-30T23:03:13.471Z,55.00
2023-12-30T23:03:49.858Z,55.00
2023-12-30T23:04:24.811Z,55.00
2023-12-30T23:05:00.977Z,54.00
2023-12-30T23:05:34.408Z,54.00
2023-12-30T23:06:09.681Z,53.67
2023-12-30T23:06:44.521Z,53.00
2023-12-30T23:07:23.996Z,53.00
